createdAt,value
2023-05-10T00:04:03.793Z,59446.63
2023-05-10T00:08:25.518Z,70311.38
2023-05-10T00:12:47.858Z,60505.28
2023-05-10T00:17:11.170Z,43073.28
2023-05-10T00:21:32.888Z,47819.84
2023-05-10T00:25:54.622Z,49139.34
2023-05-10T00:30:16.643Z,62093.84
2023-05-10T00:34:39.970Z,49667.28
2023-05-10T00:39:01.699Z,52043.81
2023-05-10T00:43:23.400Z,47556.00
2023-05-10T00:47:45.418Z,56272.28
2023-05-10T00:52:09.040Z,47028.34
2023-05-10T00:56:31.011Z,56007.88
2023-05-10T01:00:53.173Z,60240.59
2023-05-10T01:05:15.615Z,62358.66
2023-05-10T01:09:38.869Z,70576.75
2023-05-10T01:14:00.634Z,69515.41
2023-05-10T01:18:22.805Z,75356.31
2023-05-10T01:23:11.665Z,70842.13
2023-05-10T01:28:01.586Z,58652.81
2023-05-10T01:32:32.110Z,62623.47
2023-05-10T01:37:02.873Z,69515.41
2023-05-10T01:41:33.787Z,59182.00
2023-05-10T01:46:03.425Z,71638.38
2023-05-10T01:50:30.094Z,57330.13
2023-05-10T01:55:01.355Z,57065.63
2023-05-10T01:59:24.179Z,59975.91
2023-05-10T02:03:47.179Z,70046.03
2023-05-10T02:08:10.881Z,62358.66
2023-05-10T02:12:35.864Z,65272.81
2023-05-10T02:16:59.391Z,63683.00
2023-05-10T02:21:22.470Z,70842.13
2023-05-10T02:25:49.019Z,71372.94
2023-05-10T02:30:12.670Z,58917.38
2023-05-10T02:34:34.651Z,49931.28
2023-05-10T02:38:57.425Z,45973.28
2023-05-10T02:43:23.947Z,38536.00
2023-05-10T02:47:45.860Z,54950.41
2023-05-10T02:52:09.026Z,31498.72
2023-05-10T02:56:35.022Z,68454.31
2023-05-10T03:00:58.186Z,66333.03
2023-05-10T03:05:20.219Z,60770.00
2023-05-10T03:09:42.653Z,62358.66
2023-05-10T03:14:13.889Z,67128.38
2023-05-10T03:18:44.951Z,63153.22
2023-05-10T03:23:14.401Z,57859.16
2023-05-10T03:27:37.236Z,55479.13
2023-05-10T03:31:59.355Z,49667.28
2023-05-10T03:36:22.397Z,44918.50
2023-05-10T03:40:44.090Z,48083.72
2023-05-10T03:45:06.978Z,48083.72
2023-05-10T03:49:28.703Z,49931.28
2023-05-10T03:53:51.765Z,46237.03
2023-05-10T03:58:13.492Z,64212.88
2023-05-10T04:02:35.504Z,70842.13
2023-05-10T04:06:57.287Z,71638.38
2023-05-10T04:11:20.445Z,53364.72
2023-05-10T04:15:42.232Z,63153.22
2023-05-10T04:20:04.837Z,56801.19
2023-05-10T04:24:26.552Z,48611.50
2023-05-10T04:28:49.878Z,54421.78
2023-05-10T04:33:11.648Z,26548.34
2023-05-10T04:37:33.408Z,20494.53
2023-05-10T04:41:55.106Z,22613.84
2023-05-10T04:46:18.284Z,18759.03
2023-05-10T04:50:40.309Z,18525.75
2023-05-10T04:55:02.032Z,18227.06
2023-05-10T04:59:23.786Z,18100.22
2023-05-10T05:03:47.035Z,18564.63
2023-05-10T05:08:08.966Z,18832.69
2023-05-10T05:12:30.730Z,18120.66
2023-05-10T05:16:52.589Z,21411.75
2023-05-10T05:21:16.068Z,23158.69
2023-05-10T05:25:37.801Z,20629.66
2023-05-10T05:29:59.565Z,21935.94
2023-05-10T05:34:21.302Z,21313.47
2023-05-10T05:38:44.377Z,20052.41
2023-05-10T05:43:06.098Z,18646.47
2023-05-10T05:47:27.970Z,18722.19
2023-05-10T05:51:49.680Z,18421.41
2023-05-10T05:56:12.740Z,18511.44
2023-05-10T06:00:35.054Z,18034.75
2023-05-10T06:04:56.780Z,18842.91
2023-05-10T06:09:18.535Z,19000.47
2023-05-10T06:13:41.901Z,18714.00
2023-05-10T06:18:03.968Z,18640.34
2023-05-10T06:22:25.766Z,18558.50
2023-05-10T06:26:47.459Z,18282.28
2023-05-10T06:31:10.540Z,18049.06
2023-05-10T06:35:32.363Z,18366.19
2023-05-10T06:39:54.107Z,18194.31
2023-05-10T06:44:17.142Z,18701.72
2023-05-10T06:48:40.286Z,18568.72
2023-05-10T06:53:02.301Z,18746.75
2023-05-10T07:01:52.115Z,19180.56
2023-05-10T07:06:29.193Z,19307.44
2023-05-10T07:10:59.766Z,19589.84
2023-05-10T07:15:21.659Z,19769.94
2023-05-10T07:19:43.389Z,18370.28
2023-05-10T07:24:06.741Z,18554.41
2023-05-10T07:28:28.539Z,18206.59
2023-05-10T07:32:50.522Z,18079.75
2023-05-10T07:37:12.350Z,17961.09
2023-05-10T07:41:36.050Z,17920.19
2023-05-10T07:45:58.580Z,17846.53
2023-05-10T07:50:20.429Z,17873.13
2023-05-10T07:54:42.182Z,18044.97
2023-05-10T07:59:05.432Z,17867.00
2023-05-10T08:03:27.381Z,17781.09
2023-05-10T08:07:49.444Z,17803.59
2023-05-10T08:12:11.183Z,17883.38
2023-05-10T08:16:34.362Z,17809.72
2023-05-10T08:20:56.152Z,17817.91
2023-05-10T08:25:18.117Z,17813.81
2023-05-10T08:29:49.632Z,17838.34
2023-05-10T08:34:13.369Z,17948.81
2023-05-10T08:38:35.111Z,17987.69
2023-05-10T08:43:04.083Z,17912.00
2023-05-10T08:47:26.533Z,17885.41
2023-05-10T08:51:52.733Z,17842.44
2023-05-10T08:56:14.526Z,17838.34
2023-05-10T09:00:37.357Z,18108.41
2023-05-10T09:04:59.166Z,18102.25
2023-05-10T09:09:22.596Z,17907.91
2023-05-10T09:13:45.205Z,17940.66
2023-05-10T09:18:07.179Z,18026.56
2023-05-10T09:22:29.017Z,18022.47
2023-05-10T09:26:52.141Z,18034.75
2023-05-10T09:31:13.920Z,17948.81
2023-05-10T09:35:35.734Z,17881.31
2023-05-10T09:39:57.445Z,17967.25
2023-05-10T09:44:20.504Z,17948.81
2023-05-10T09:48:44.111Z,18235.25
2023-05-10T09:53:05.839Z,18564.63
2023-05-10T09:57:28.209Z,18738.56
2023-05-10T10:06:29.571Z,18849.06
2023-05-10T10:10:52.867Z,18570.78
2023-05-10T10:15:16.723Z,18210.69
2023-05-10T10:19:40.512Z,18110.44
2023-05-10T10:24:02.302Z,18018.38
2023-05-10T10:28:34.440Z,18051.13
2023-05-10T10:33:29.227Z,18139.09
2023-05-10T10:37:52.728Z,18476.66
2023-05-10T10:42:14.516Z,18660.81
2023-05-10T10:47:00.215Z,18714.00
2023-05-10T10:51:22.135Z,18658.75
2023-05-10T10:55:49.551Z,18546.22
2023-05-10T11:00:22.983Z,18480.75
2023-05-10T11:04:44.975Z,18374.38
2023-05-10T11:09:07.962Z,18378.44
2023-05-10T11:13:32.543Z,18345.72
2023-05-10T11:17:54.536Z,18484.84
2023-05-10T11:22:16.264Z,18581.00
2023-05-10T11:26:38.612Z,18554.41
2023-05-10T11:31:01.784Z,18386.63
2023-05-10T11:35:23.745Z,18317.06
2023-05-10T11:39:47.345Z,18486.88
2023-05-10T11:44:10.089Z,18427.56
2023-05-10T11:48:33.437Z,18617.84
2023-05-10T11:52:56.422Z,18742.66
2023-05-10T11:57:19.272Z,18632.16
2023-05-10T12:01:41.194Z,18595.34
2023-05-10T12:06:04.962Z,18513.50
2023-05-10T12:10:27.497Z,18466.44
2023-05-10T12:14:51.212Z,18550.31
2023-05-10T12:19:13.022Z,18730.38
2023-05-10T12:23:36.760Z,18943.19
2023-05-10T12:27:59.653Z,18697.63
2023-05-10T12:32:21.555Z,18593.28
2023-05-10T12:36:43.271Z,18468.47
2023-05-10T12:41:08.225Z,18583.06
2023-05-10T12:45:30.210Z,18470.53
2023-05-10T12:49:51.933Z,18425.50
2023-05-10T12:54:13.814Z,18360.03
2023-05-10T12:58:37.108Z,18415.28
2023-05-10T13:02:58.915Z,18360.03
2023-05-10T13:07:20.715Z,18405.06
2023-05-10T13:11:42.634Z,18423.47
2023-05-10T13:16:06.658Z,18470.53
2023-05-10T13:20:28.531Z,18570.78
2023-05-10T13:24:50.347Z,18736.50
2023-05-10T13:29:12.131Z,18656.72
2023-05-10T13:33:35.353Z,18664.91
2023-05-10T13:37:57.122Z,18705.81
2023-05-10T13:42:19.100Z,18724.22
2023-05-10T13:46:41.199Z,18669.00
2023-05-10T13:51:04.422Z,19115.06
2023-05-10T13:55:26.193Z,18986.16
2023-05-10T13:59:47.989Z,18771.28
2023-05-10T14:04:09.903Z,18519.63
2023-05-10T14:08:32.999Z,18529.84
2023-05-10T14:12:54.760Z,18513.50
2023-05-10T14:17:16.492Z,18468.47
2023-05-10T14:21:38.512Z,18544.19
2023-05-10T14:26:01.842Z,18722.19
2023-05-10T14:30:23.719Z,18877.69
2023-05-10T14:34:45.474Z,18505.31
2023-05-10T14:39:07.294Z,18587.16
2023-05-10T14:43:31.615Z,18452.09
2023-05-10T14:47:53.463Z,18484.84
2023-05-10T14:52:15.282Z,18423.47
2023-05-10T14:56:37.090Z,18429.59
2023-05-10T15:01:00.205Z,18542.13
2023-05-10T15:05:22.608Z,18511.44
2023-05-10T15:09:45.149Z,18493.03
2023-05-10T15:14:06.936Z,18462.34
2023-05-10T15:18:30.073Z,18362.09
2023-05-10T15:22:51.990Z,18360.03
2023-05-10T15:27:13.769Z,18235.25
2023-05-10T15:31:35.575Z,18194.31
2023-05-10T15:35:58.645Z,18196.38
2023-05-10T15:40:20.387Z,18218.88
2023-05-10T15:44:42.122Z,18206.59
2023-05-10T15:49:03.928Z,18235.25
2023-05-10T15:53:27.036Z,18384.59
2023-05-10T15:57:48.778Z,18292.53
2023-05-10T16:02:10.610Z,18274.13
2023-05-10T16:06:32.680Z,18233.19
2023-05-10T16:10:56.386Z,18220.91
2023-05-10T16:15:18.457Z,18210.69
2023-05-10T16:19:40.333Z,18180.00
2023-05-10T16:24:03.272Z,18188.19
2023-05-10T16:28:26.348Z,18161.59
2023-05-10T16:32:48.138Z,18126.81
2023-05-10T16:37:10.039Z,18175.91
2023-05-10T16:41:33.171Z,18190.22
2023-05-10T16:45:56.483Z,18167.72
2023-05-10T16:50:18.307Z,18159.53
2023-05-10T16:54:40.324Z,18139.09
2023-05-10T16:59:02.181Z,18128.84
2023-05-10T17:03:25.489Z,18112.50
2023-05-10T17:07:48.405Z,18149.31
2023-05-10T17:12:10.522Z,18135.00
2023-05-10T17:16:32.345Z,18149.31
2023-05-10T17:20:55.655Z,18100.22
2023-05-10T17:25:17.840Z,18075.66
2023-05-10T17:29:40.013Z,18096.13
2023-05-10T17:34:03.952Z,18065.44
2023-05-10T17:38:28.522Z,18079.75
2023-05-10T17:42:50.256Z,18055.22
2023-05-10T17:47:12.096Z,18020.44
2023-05-10T17:51:33.887Z,18051.13
2023-05-10T17:55:56.991Z,18028.59
2023-05-10T18:00:19.293Z,18059.28
2023-05-10T18:04:41.179Z,18032.69
2023-05-10T18:09:03.131Z,17975.41
2023-05-10T18:13:26.295Z,18006.09
2023-05-10T18:17:49.312Z,17948.81
2023-05-10T18:22:11.299Z,17916.09
2023-05-10T18:26:33.046Z,17920.19
2023-05-10T18:30:56.201Z,17932.47
2023-05-10T18:35:18.557Z,17905.88
2023-05-10T18:39:40.634Z,17856.78
2023-05-10T18:44:02.548Z,17864.94
2023-05-10T18:48:25.707Z,17844.50
2023-05-10T18:52:47.472Z,17781.09
2023-05-10T18:57:09.314Z,17856.78
2023-05-10T19:01:31.128Z,17809.72
2023-05-10T19:05:54.233Z,17801.53
2023-05-10T19:10:15.973Z,17752.44
2023-05-10T19:14:37.685Z,17764.72
2023-05-10T19:19:01.517Z,17762.66
2023-05-10T19:23:29.186Z,17772.91
2023-05-10T19:27:50.952Z,17758.56
2023-05-10T19:32:12.724Z,17723.81
2023-05-10T19:36:34.489Z,17754.50
2023-05-10T19:40:58.408Z,17699.25
2023-05-10T19:45:20.270Z,17721.75
2023-05-10T19:49:42.208Z,17711.53
2023-05-10T19:54:03.973Z,17719.72
2023-05-10T19:58:27.226Z,17731.97
2023-05-10T20:02:49.563Z,17717.66
2023-05-10T20:07:11.451Z,17707.44
2023-05-10T20:11:33.549Z,17719.72
2023-05-10T20:15:57.574Z,17723.81
2023-05-10T20:20:19.698Z,17723.81
2023-05-10T20:24:41.633Z,17736.06
2023-05-10T20:29:03.674Z,17734.03
2023-05-10T20:33:26.796Z,17695.16
2023-05-10T20:37:48.555Z,17699.25
2023-05-10T20:42:10.355Z,17699.25
2023-05-10T20:46:32.196Z,17719.72
2023-05-10T20:50:55.282Z,17678.81
2023-05-10T20:55:17.123Z,17711.53
2023-05-10T20:59:38.936Z,17648.13
2023-05-10T21:04:00.660Z,17691.06
2023-05-10T21:08:23.904Z,17709.47
2023-05-10T21:12:45.618Z,17674.72
2023-05-10T21:17:07.477Z,17703.34
2023-05-10T21:21:29.262Z,17693.13
2023-05-10T21:25:52.293Z,17682.88
2023-05-10T21:30:14.432Z,17674.72
2023-05-10T21:34:36.340Z,17742.22
2023-05-10T21:38:58.100Z,17695.16
2023-05-10T21:43:21.190Z,17682.88
2023-05-10T21:47:42.977Z,17695.16
2023-05-10T21:52:04.827Z,17697.22
2023-05-10T21:56:26.557Z,17693.13
2023-05-10T22:00:49.848Z,17682.88
2023-05-10T22:05:11.678Z,17719.72
2023-05-10T22:09:33.378Z,17678.81
2023-05-10T22:13:55.357Z,17658.34
2023-05-10T22:18:18.478Z,17742.22
2023-05-10T22:22:40.217Z,17740.16
2023-05-10T22:27:02.454Z,17768.81
2023-05-10T22:31:24.223Z,17756.53
2023-05-10T22:35:47.341Z,17854.72
2023-05-10T22:40:10.187Z,17738.13
2023-05-10T22:44:31.888Z,17850.63
2023-05-10T22:48:53.625Z,17809.72
2023-05-10T22:53:16.713Z,17807.69
2023-05-10T22:57:38.676Z,17826.09
2023-05-10T23:02:00.754Z,17785.16
2023-05-10T23:06:22.480Z,17836.31
2023-05-10T23:10:45.517Z,17770.84
2023-05-10T23:15:08.313Z,17797.44
2023-05-10T23:19:30.014Z,17689.03
2023-05-10T23:23:51.851Z,17699.25
2023-05-10T23:28:15.192Z,17646.06
2023-05-10T23:32:37.065Z,17625.63
2023-05-10T23:36:58.803Z,17613.34
2023-05-10T23:41:20.530Z,17580.63
2023-05-10T23:45:43.609Z,17592.88
2023-05-10T23:50:06.409Z,17596.97
2023-05-10T23:54:28.210Z,17617.44
2023-05-10T23:58:49.959Z,17678.81
